Flight Track Log - Related Links

Times and Time Zones

All times are in EST time to prevent confusion due to time zone crossing. See the SWA3383 flight status page for this flight to view local times or setup timezone preferences in your user account.

Time Position Orientation Groundspeed Altitude Reporting Facility
EST Latitude Longitude Course Direction KTS MPH feet Rate Location/Type
Fri 04:04:36 PM 39.1253 -76.6858 86° East 146 168 5,200  Level Washington Center
Fri 04:05:35 PM 39.1300 -76.5978 86° East 137 158 8,600 2,168 Climbing Washington Center
Fri 04:06:35 PM 39.1372 -76.5069 84° East 195 224 9,500 1,650 Climbing Washington Center
Fri 04:07:35 PM 39.1442 -76.4025 85° East 241 277 11,900 2,450 Climbing Washington Center
Fri 04:08:35 PM 39.1511 -76.2767 86° East 301 346 14,400 3,000 Climbing Washington Center
Fri 04:09:35 PM 39.1622 -76.1322 84° East 359 413 17,900 3,074 Climbing Washington Center
Fri 04:10:36 PM 39.1772 -75.9986 82° East 372 428 20,600 2,550 Climbing Washington Center
Fri 04:11:35 PM 39.2069 -75.8647 74° East 378 435 23,000 2,168 Climbing Washington Center
Fri 04:12:35 PM 39.2842 -75.7606 46° Northeast 378 435 24,900 992 Climbing Washington Center
Fri 04:13:36 PM 39.3656 -75.6586 44° Northeast 388 447 25,000 50 Climbing Washington Center
Fri 04:14:35 PM 39.4447 -75.5539 46° Northeast 395 455 25,000  Level Washington Center
Fri 04:15:35 PM 39.5258 -75.4489 45° Northeast 400 460 25,000  Level Washington Center
Fri 04:17:17 PM 39.6497 -75.2869 45° Northeast 417 480 25,000  Level New York Center
Fri 04:18:18 PM 39.7289 -75.1786 46° Northeast 417 480 25,000  Level New York Center
Fri 04:19:18 PM 39.8039 -75.0647 49° Northeast 411 473 25,000  Level New York Center
Fri 04:20:16 PM 39.8786 -74.9583 48° Northeast 406 467 25,000  Level New York Center
Fri 04:21:18 PM 39.9556 -74.8464 48° Northeast 401 461 25,000  Level New York Center
Fri 04:22:16 PM 40.0408 -74.7294 46° Northeast 402 463 25,000  Level New York Center
Fri 04:23:16 PM 40.1089 -74.6303 48° Northeast 408 470 25,000  Level New York Center
Fri 04:24:17 PM 40.1878 -74.5069 50° Northeast 403 464 25,000  Level New York Center
Fri 04:25:17 PM 40.2542 -74.3800 56° Northeast 410 472 25,000 -298 Level New York Center
Fri 04:26:18 PM 40.3164 -74.2553 57° Northeast 410 472 24,400 -744 Descending New York Center
Fri 04:27:18 PM 40.3781 -74.1383 55° Northeast 402 463 23,500 -1,101 Descending New York Center
Fri 04:29:45 PM 40.5281 -73.8925 51° Northeast 377 434 20,600 -1,101 Descending Boston Center
Fri 04:30:45 PM 40.5753 -73.7817 61° Northeast 361 415 19,700 -700 Descending Boston Center
Fri 04:31:45 PM 40.6244 -73.6706 60° Northeast 354 407 19,200 -350 Descending Boston Center
Fri 04:32:45 PM 40.6756 -73.5647 57° Northeast 349 402 19,000 -100 Descending Boston Center
Fri 04:33:45 PM 40.7222 -73.4589 60° Northeast 337 388 19,000  Level Boston Center
Fri 04:34:45 PM 40.7692 -73.3553 59° Northeast 332 382 19,000  Level Boston Center
Fri 04:35:45 PM 40.8303 -73.2631 49° Northeast 332 382 19,000 -100 Level Boston Center
Fri 04:36:45 PM 40.8994 -73.1786 43° Northeast 332 382 18,800 -600 Descending Boston Center
Fri 04:37:45 PM 40.9689 -73.1025 40° Northeast 327 376 17,800 -950 Descending Boston Center
Fri 04:38:45 PM 41.0339 -73.0261 42° Northeast 316 364 16,900 -992 Descending Boston Center
Fri 04:39:46 PM 41.0967 -72.9497 43° Northeast 316 364 15,800 -1,050 Descending Boston Center
Fri 04:40:45 PM 41.1658 -72.8675 42° Northeast 311 358 14,800 -1,063 Descending Boston Center
Fri 04:41:05 PM 41.1847 -72.8456 41° Northeast 300 345 14,400 -1,400 Descending Boston Center
Fri 04:41:45 PM 41.2264 -72.7961 42° Northeast 305 351 13,400 -1,701 Descending Boston Center
Fri 04:42:12 PM 41.2536 -72.7631 42° Northeast 291 335 12,500 -1,800 Descending Boston Center
Fri 04:42:45 PM 41.2831 -72.7356 35° Northeast 289 333 11,600 -1,875 Descending Boston Center
Fri 04:43:00 PM 41.3039 -72.7136 38° Northeast 285 328 11,000 -1,400 Descending Boston Center
Fri 04:43:45 PM 41.3622 -72.7361 344° North 253 291 10,200 -686 Descending Boston Center
Fri 04:44:45 PM 41.4225 -72.7861 328° Northwest 259 298 9,800 -1,000 Descending Boston Center
Fri 04:45:45 PM 41.4931 -72.8447 328° Northwest 272 313 8,200 -1,558 Descending Boston Center
Fri 04:46:02 PM 41.5117 -72.8614 326° Northwest 269 310 7,800 -1,300 Descending Boston Center
Fri 04:46:45 PM 41.5492 -72.8894 331° Northwest 272 313 6,900 -1,343 Descending Boston Center
Fri 04:47:09 PM 41.5803 -72.9175 326° Northwest 265 305 6,300 -1,200 Descending Boston Center
Fri 04:47:45 PM 41.6156 -72.9456 329° Northwest 262 302 5,700 -1,000 Descending Boston Center
Fri 04:48:09 PM 41.6386 -72.9678 324° Northwest 251 289 5,300 -900 Descending Boston Center
Fri 04:48:45 PM 41.6717 -72.9875 336° Northwest 255 293 4,800 -984 Descending Boston Center
Fri 04:49:10 PM 41.6989 -72.9906 355° North 226 260 4,300 -900 Descending Boston Center
Fri 04:49:45 PM 41.7303 -72.9603 36° Northeast 203 234 3,900 -627 Descending Boston Center
Fri 04:50:17 PM 41.7511 -72.9325 45° Northeast 213 245 3,600 -500 Descending Boston Center
Fri 04:50:45 PM 41.7722 -72.9078 41° Northeast 197 227 3,400 -556 Descending Boston Center
Fri 04:51:11 PM 41.7908 -72.8856 42° Northeast 212 244 3,100 -400 Descending Boston Center
Fri 04:51:45 PM 41.8139 -72.8550 45° Northeast 211 243 3,000 -98 Descending Boston Center
Fri 04:52:12 PM 41.8308 -72.8331 44° Northeast 196 226 3,000 -400 Level Boston Center
Fri 04:52:45 PM 41.8475 -72.8081 48° Northeast 195 224 2,600 -900 Descending Boston Center
Fri 04:53:12 PM 41.8642 -72.7886 41° Northeast 160 184 2,100 -900 Descending Boston Center
Fri 04:53:45 PM 41.8789 -72.7692 45° Northeast 166 191 1,700 -735 Descending Boston Center
Fri 04:54:01 PM 41.8853 -72.7636 33° Northeast 145 167 1,500 -700 Descending Boston Center
Fri 04:54:45 PM 41.9019 -72.7386 48° Northeast 136 157 1,000 -590 Descending Boston Center
Fri 04:55:02 PM 41.9081 -72.7303 45° Northeast 120 138 900 -353 Descending Boston Center
Fri 04:57:00 PM 41.9333 -72.6833 45° Northeast  Level FlightAware Approximate
Fri 05:04:00 PM 41.9392 -72.6834 45° Northeast  Level Estimated
Fri 05:05:00 PM 41.9333 -72.6833 45° Northeast  Level FlightAware Approximate
Fri 05:06:00 PM 41.9392 -72.6834 45° Northeast  Level Estimated

Login

Don't have an account? Register now (free) for customized features, flight alerts, and more!